Moosomin, Canada
Current Conditions -  °F | °C
As of 2:00 AM on Wednesday 26 Nov 2014 (Local Time) from CYBR Reporting Station
Scattered Clouds Scattered Clouds  
Wind Chill: -19°   Ceiling: Unl
Heat Index: -19°   Visibility: 15mi
Dew Point: -23°   Wind: 3mph
Humidity: 71%   Direction: 30°NNE
Pressure: 30.31"   Gusts: NA
Location:  50.15°N, 101.67°W
Report Text: CYBR 260800Z 03003KT 15SM SCT090 M19/M23 A3031 RMK AC4 SLP305
Loading
Personal Weather Stations






























Interactive Weather Map New forecast layout! Learn more

10-Day Weather Forecast

Advertisements
Track Severe Weather on mobile